sensor_id;sensor_type;location;lat;lon;timestamp;P1;durP1;ratioP1;P2;durP2;ratioP2
72674;SDS011;60752;53.962;9.614;2023-08-17T00:07:59;4.37;;;2.00;;
72674;SDS011;60752;53.962;9.614;2023-08-17T00:38:01;7.20;;;2.17;;
72674;SDS011;60752;53.962;9.614;2023-08-17T01:08:03;4.13;;;1.53;;
72674;SDS011;60752;53.962;9.614;2023-08-17T01:38:06;5.20;;;1.80;;
72674;SDS011;60752;53.962;9.614;2023-08-17T02:08:08;6.33;;;1.73;;
72674;SDS011;60752;53.962;9.614;2023-08-17T02:38:10;5.03;;;2.03;;
72674;SDS011;60752;53.962;9.614;2023-08-17T03:08:11;9.80;;;2.53;;
72674;SDS011;60752;53.962;9.614;2023-08-17T03:38:13;9.17;;;2.13;;
72674;SDS011;60752;53.962;9.614;2023-08-17T04:08:15;5.07;;;1.93;;
72674;SDS011;60752;53.962;9.614;2023-08-17T04:38:16;6.83;;;1.73;;
72674;SDS011;60752;53.962;9.614;2023-08-17T05:08:18;5.73;;;1.77;;
72674;SDS011;60752;53.962;9.614;2023-08-17T05:38:20;3.97;;;1.30;;
72674;SDS011;60752;53.962;9.614;2023-08-17T06:08:21;5.23;;;1.60;;
72674;SDS011;60752;53.962;9.614;2023-08-17T06:38:23;7.67;;;1.80;;
72674;SDS011;60752;53.962;9.614;2023-08-17T07:08:24;3.57;;;1.50;;
72674;SDS011;60752;53.962;9.614;2023-08-17T07:38:26;4.53;;;1.63;;
72674;SDS011;60752;53.962;9.614;2023-08-17T08:08:28;5.50;;;1.73;;
72674;SDS011;60752;53.962;9.614;2023-08-17T08:38:29;6.47;;;1.60;;
72674;SDS011;60752;53.962;9.614;2023-08-17T09:08:31;6.90;;;2.20;;
72674;SDS011;60752;53.962;9.614;2023-08-17T09:38:33;5.43;;;2.47;;
72674;SDS011;60752;53.962;9.614;2023-08-17T10:08:36;9.77;;;2.30;;
72674;SDS011;60752;53.962;9.614;2023-08-17T10:38:41;4.95;;;2.47;;
72674;SDS011;60752;53.962;9.614;2023-08-17T11:08:52;5.07;;;2.13;;
72674;SDS011;60752;53.962;9.614;2023-08-17T11:38:54;4.87;;;2.13;;
72674;SDS011;60752;53.962;9.614;2023-08-17T12:08:55;7.73;;;1.97;;
72674;SDS011;60752;53.962;9.614;2023-08-17T12:38:57;6.70;;;2.20;;
72674;SDS011;60752;53.962;9.614;2023-08-17T13:08:59;7.35;;;2.33;;
72674;SDS011;60752;53.962;9.614;2023-08-17T13:39:00;6.17;;;2.17;;
72674;SDS011;60752;53.962;9.614;2023-08-17T14:09:02;6.47;;;2.27;;
72674;SDS011;60752;53.962;9.614;2023-08-17T14:39:04;6.77;;;2.40;;
72674;SDS011;60752;53.962;9.614;2023-08-17T15:09:05;6.97;;;2.47;;
72674;SDS011;60752;53.962;9.614;2023-08-17T15:39:07;6.03;;;2.00;;
72674;SDS011;60752;53.962;9.614;2023-08-17T16:09:09;4.90;;;1.70;;
72674;SDS011;60752;53.962;9.614;2023-08-17T16:39:10;3.40;;;1.30;;
72674;SDS011;60752;53.962;9.614;2023-08-17T17:09:12;6.47;;;1.40;;
72674;SDS011;60752;53.962;9.614;2023-08-17T17:39:14;3.93;;;1.20;;
72674;SDS011;60752;53.962;9.614;2023-08-17T18:09:15;2.95;;;1.13;;
72674;SDS011;60752;53.962;9.614;2023-08-17T18:39:17;3.30;;;1.17;;
72674;SDS011;60752;53.962;9.614;2023-08-17T19:09:18;4.00;;;1.40;;
72674;SDS011;60752;53.962;9.614;2023-08-17T19:39:20;3.60;;;1.30;;
72674;SDS011;60752;53.962;9.614;2023-08-17T20:09:22;3.30;;;1.40;;
72674;SDS011;60752;53.962;9.614;2023-08-17T20:39:23;3.85;;;1.60;;
72674;SDS011;60752;53.962;9.614;2023-08-17T21:09:25;4.53;;;1.60;;
72674;SDS011;60752;53.962;9.614;2023-08-17T21:39:26;7.50;;;1.60;;
72674;SDS011;60752;53.962;9.614;2023-08-17T22:09:28;5.30;;;1.60;;
72674;SDS011;60752;53.962;9.614;2023-08-17T22:39:30;3.50;;;1.50;;
72674;SDS011;60752;53.962;9.614;2023-08-17T23:09:32;8.50;;;1.90;;
72674;SDS011;60752;53.962;9.614;2023-08-17T23:39:33;6.40;;;2.00;;
